createdAt,value
2023-04-14T00:02:13.550Z,24.70
2023-04-14T00:04:41.150Z,24.70
2023-04-14T00:07:08.826Z,25.50
2023-04-14T00:09:35.933Z,22.40
2023-04-14T00:12:03.121Z,23.20
2023-04-14T00:14:30.773Z,29.20
2023-04-14T00:16:58.024Z,29.70
2023-04-14T00:19:25.238Z,27.70
2023-04-14T00:21:52.932Z,27.40
2023-04-14T00:24:20.073Z,22.90
2023-04-14T00:26:47.205Z,20.50
2023-04-14T00:29:14.374Z,8.50
2023-04-14T00:31:41.596Z,8.90
2023-04-14T00:34:08.808Z,10.40
2023-04-14T00:36:37.079Z,8.20
2023-04-14T00:39:05.281Z,1.10
2023-04-14T00:41:35.610Z,1.00
2023-04-14T00:44:03.144Z,1.00
2023-04-14T00:46:30.502Z,1.00
2023-04-14T00:48:58.125Z,1.00
2023-04-14T00:51:27.643Z,1.00
2023-04-14T00:53:56.268Z,1.00
2023-04-14T00:56:26.665Z,1.00
2023-04-14T00:58:54.279Z,1.00
2023-04-14T01:01:21.659Z,1.00
2023-04-14T01:03:49.028Z,1.00
2023-04-14T01:06:16.582Z,1.00
2023-04-14T01:08:43.824Z,1.00
2023-04-14T01:11:22.635Z,1.00
2023-04-14T01:14:10.589Z,1.00
2023-04-14T01:16:43.184Z,1.00
2023-04-14T01:19:47.630Z,1.00
2023-04-14T01:22:18.790Z,1.00
2023-04-14T01:25:09.502Z,1.00
2023-04-14T01:27:53.445Z,1.00
2023-04-14T01:30:33.548Z,1.00
2023-04-14T01:33:06.066Z,1.00
2023-04-14T01:35:55.751Z,1.00
2023-04-14T01:38:27.629Z,1.00
2023-04-14T01:40:59.633Z,1.00
2023-04-14T01:43:29.158Z,1.00
2023-04-14T01:46:00.951Z,1.00
2023-04-14T01:48:28.738Z,1.00
2023-04-14T01:50:56.910Z,1.00
2023-04-14T01:53:26.128Z,1.00
2023-04-14T01:55:54.832Z,1.00
2023-04-14T01:58:23.687Z,1.00
2023-04-14T02:00:53.452Z,1.00
2023-04-14T02:03:23.828Z,1.00
2023-04-14T02:05:54.395Z,1.00
2023-04-14T02:08:24.039Z,1.00
2023-04-14T02:10:54.014Z,1.00
2023-04-14T02:13:23.239Z,1.00
2023-04-14T02:15:52.387Z,1.00
2023-04-14T02:18:22.409Z,1.00
2023-04-14T02:20:52.865Z,1.00
2023-04-14T02:23:20.090Z,1.00
2023-04-14T02:25:55.679Z,1.00
2023-04-14T02:28:29.221Z,1.00
2023-04-14T02:30:59.590Z,1.00
2023-04-14T02:33:34.768Z,1.00
2023-04-14T02:36:18.616Z,1.00
2023-04-14T02:38:55.725Z,1.00
2023-04-14T02:41:29.042Z,1.00
2023-04-14T02:44:16.184Z,1.00
2023-04-14T02:47:07.884Z,1.00
2023-04-14T02:49:42.823Z,8.20
2023-04-14T02:52:14.990Z,12.40
2023-04-14T02:54:43.822Z,2.80
2023-04-14T02:57:12.259Z,1.00
2023-04-14T02:59:42.584Z,1.00
2023-04-14T03:02:11.894Z,1.00
2023-04-14T03:04:41.814Z,1.00
2023-04-14T03:07:11.892Z,1.00
2023-04-14T03:09:40.826Z,1.00
2023-04-14T03:12:13.205Z,1.00
2023-04-14T03:14:43.355Z,1.00
2023-04-14T03:17:15.012Z,3.60
2023-04-14T03:19:44.301Z,6.90
2023-04-14T03:22:12.801Z,9.20
2023-04-14T03:24:42.392Z,10.90
2023-04-14T03:27:16.917Z,1.00
2023-04-14T03:29:49.179Z,1.00
2023-04-14T03:32:19.994Z,8.00
2023-04-14T03:34:56.798Z,6.60
2023-04-14T03:37:27.607Z,11.10
2023-04-14T03:40:00.814Z,15.20
2023-04-14T03:42:31.779Z,19.80
2023-04-14T03:45:00.788Z,18.40
2023-04-14T03:47:31.869Z,22.60
2023-04-14T03:50:01.655Z,24.90
2023-04-14T03:52:37.099Z,43.00
2023-04-14T03:55:07.408Z,44.30
2023-04-14T03:57:35.314Z,32.10
2023-04-14T04:00:05.427Z,27.10
2023-04-14T04:02:33.484Z,29.50
2023-04-14T04:05:01.953Z,22.80
2023-04-14T04:07:32.562Z,23.00
2023-04-14T04:10:00.427Z,25.30
2023-04-14T04:12:28.894Z,26.00
2023-04-14T04:14:56.833Z,24.00
2023-04-14T04:17:25.626Z,21.10
2023-04-14T04:19:54.935Z,18.90
2023-04-14T04:22:27.262Z,19.50
2023-04-14T04:24:56.276Z,15.80
2023-04-14T04:27:28.013Z,20.50
2023-04-14T04:29:56.650Z,23.30
2023-04-14T04:32:24.429Z,19.70
2023-04-14T04:34:53.360Z,21.30
2023-04-14T04:37:21.723Z,21.60
2023-04-14T04:39:49.348Z,13.50
2023-04-14T04:42:17.132Z,11.60
2023-04-14T04:44:45.320Z,22.00
2023-04-14T04:47:13.563Z,26.00
2023-04-14T04:49:40.719Z,26.40
2023-04-14T04:52:07.850Z,26.90
2023-04-14T04:54:35.562Z,28.70
2023-04-14T04:57:02.683Z,41.40
2023-04-14T04:59:29.826Z,55.00
2023-04-14T05:01:57.128Z,56.90
2023-04-14T05:04:24.702Z,55.80
2023-04-14T05:06:52.223Z,55.90
2023-04-14T05:09:19.376Z,55.20
2023-04-14T05:11:46.506Z,46.20
2023-04-14T05:14:13.654Z,38.70
2023-04-14T05:16:41.143Z,39.50
2023-04-14T05:19:08.261Z,43.70
2023-04-14T05:21:35.681Z,36.50
2023-04-14T05:24:02.914Z,38.90
2023-04-14T05:26:51.765Z,48.90
2023-04-14T05:29:17.861Z,47.50
2023-04-14T05:31:45.146Z,45.20
2023-04-14T05:34:12.303Z,38.30
2023-04-14T05:36:39.478Z,32.60
2023-04-14T05:39:06.853Z,33.60
2023-04-14T05:41:33.955Z,19.40
2023-04-14T05:44:01.604Z,20.20
2023-04-14T05:46:29.339Z,11.90
2023-04-14T05:48:57.914Z,1.00
2023-04-14T05:51:25.237Z,1.00
2023-04-14T05:53:52.397Z,1.00
2023-04-14T05:56:19.557Z,1.00
2023-04-14T05:58:46.850Z,1.00
2023-04-14T06:01:14.061Z,1.00
2023-04-14T06:03:41.679Z,1.90
2023-04-14T06:06:09.176Z,7.20
2023-04-14T06:08:36.454Z,10.30
2023-04-14T06:11:04.251Z,1.00
2023-04-14T06:13:34.849Z,1.00
2023-04-14T06:16:03.656Z,1.00
2023-04-14T06:18:30.914Z,1.00
2023-04-14T06:20:58.063Z,1.00
2023-04-14T06:23:27.008Z,1.00
2023-04-14T06:25:55.263Z,1.00
2023-04-14T06:28:24.348Z,1.00
2023-04-14T06:30:51.618Z,1.00
2023-04-14T06:33:18.850Z,1.00
2023-04-14T06:35:46.462Z,1.00
2023-04-14T06:38:13.647Z,1.00
2023-04-14T06:40:41.064Z,1.00
2023-04-14T06:43:11.814Z,1.00
2023-04-14T06:45:40.038Z,1.00
2023-04-14T06:48:08.145Z,1.00
2023-04-14T06:50:35.682Z,1.00
2023-04-14T06:53:03.182Z,1.00
2023-04-14T06:55:30.644Z,1.00
2023-04-14T06:57:57.704Z,1.00
2023-04-14T07:00:24.987Z,1.00
2023-04-14T07:02:52.134Z,1.00
2023-04-14T07:05:19.964Z,1.00
2023-04-14T07:07:47.173Z,1.00
2023-04-14T07:10:14.654Z,1.00
2023-04-14T07:12:41.915Z,1.00
2023-04-14T07:15:09.668Z,1.00
2023-04-14T07:17:37.237Z,1.00
2023-04-14T07:20:05.567Z,1.00
2023-04-14T07:22:33.534Z,1.00
2023-04-14T07:25:00.794Z,1.00
2023-04-14T07:27:29.006Z,1.00
2023-04-14T07:29:56.447Z,1.00
2023-04-14T07:32:23.582Z,1.00
2023-04-14T07:34:51.564Z,1.00
2023-04-14T07:37:19.480Z,1.00
2023-04-14T07:39:47.010Z,1.00
2023-04-14T07:42:14.192Z,1.00
2023-04-14T07:44:41.501Z,1.00
2023-04-14T07:47:08.779Z,1.00
2023-04-14T07:49:36.845Z,1.00
2023-04-14T07:52:04.075Z,1.00
2023-04-14T07:54:32.058Z,1.00
2023-04-14T07:56:59.381Z,1.00
2023-04-14T07:59:26.725Z,1.00
2023-04-14T08:01:54.087Z,1.00
2023-04-14T08:04:21.518Z,1.00
2023-04-14T08:06:48.737Z,1.00
2023-04-14T08:09:15.902Z,1.00
2023-04-14T08:11:43.085Z,1.00
2023-04-14T08:14:10.831Z,1.00
2023-04-14T08:16:38.053Z,1.00
2023-04-14T08:19:05.528Z,1.00
2023-04-14T08:21:32.878Z,1.00
2023-04-14T08:24:00.135Z,1.00
2023-04-14T08:26:30.156Z,1.00
2023-04-14T08:28:57.308Z,1.00
2023-04-14T08:31:25.996Z,1.00
2023-04-14T08:33:53.408Z,1.00
2023-04-14T08:36:21.263Z,1.00
2023-04-14T08:38:48.524Z,1.00
2023-04-14T08:41:19.999Z,1.00
2023-04-14T08:43:47.248Z,1.00
2023-04-14T08:46:17.271Z,1.00
2023-04-14T08:48:50.087Z,1.00
2023-04-14T08:51:32.498Z,1.00
2023-04-14T08:54:01.923Z,1.00
2023-04-14T08:56:34.025Z,1.00
2023-04-14T08:59:02.139Z,1.00
2023-04-14T09:01:32.074Z,1.00
2023-04-14T09:04:02.012Z,1.00
2023-04-14T09:06:30.079Z,1.00
2023-04-14T09:08:58.584Z,1.00
2023-04-14T09:11:26.113Z,1.00
2023-04-14T09:13:54.209Z,1.00
2023-04-14T09:16:21.620Z,1.00
2023-04-14T09:18:49.972Z,1.00
2023-04-14T09:21:50.301Z,1.00
2023-04-14T09:24:06.386Z,1.00
2023-04-14T09:26:33.972Z,1.00
2023-04-14T09:29:01.482Z,1.00
2023-04-14T09:31:28.828Z,1.00
2023-04-14T09:33:56.110Z,1.00
2023-04-14T09:36:29.224Z,1.00
2023-04-14T09:38:57.632Z,1.00
2023-04-14T09:41:27.796Z,1.00
2023-04-14T09:43:55.053Z,1.00
2023-04-14T09:46:22.955Z,1.00
2023-04-14T09:48:52.521Z,1.00
2023-04-14T09:51:33.581Z,1.00
2023-04-14T09:54:05.579Z,1.00
2023-04-14T09:56:33.327Z,99.90
2023-04-14T09:59:02.981Z,99.90
2023-04-14T10:01:34.437Z,99.90
2023-04-14T10:04:03.072Z,99.90
2023-04-14T10:06:31.941Z,99.90
2023-04-14T10:09:00.131Z,99.90
2023-04-14T10:11:35.493Z,99.90
2023-04-14T10:14:05.404Z,99.90
2023-04-14T10:16:33.948Z,99.90
2023-04-14T10:19:02.471Z,99.90
2023-04-14T10:21:30.239Z,99.90
2023-04-14T10:23:58.033Z,99.90
2023-04-14T10:26:26.874Z,99.90
2023-04-14T10:28:55.876Z,99.90
2023-04-14T10:31:33.638Z,99.90
2023-04-14T10:34:09.467Z,99.90
2023-04-14T10:36:37.511Z,99.90
2023-04-14T10:39:06.315Z,99.90
2023-04-14T10:41:48.268Z,99.90
2023-04-14T10:44:31.966Z,99.90
2023-04-14T10:47:02.899Z,99.90
2023-04-14T10:49:35.591Z,99.90
2023-04-14T10:52:05.610Z,99.90
2023-04-14T10:54:53.686Z,99.90
2023-04-14T10:57:25.223Z,99.90
2023-04-14T10:59:57.351Z,99.90
2023-04-14T11:02:32.588Z,99.90
2023-04-14T11:05:04.690Z,99.90
2023-04-14T11:07:38.323Z,99.90
2023-04-14T11:10:17.458Z,99.90
2023-04-14T11:12:46.531Z,99.90
2023-04-14T11:15:15.015Z,99.90
2023-04-14T11:17:43.525Z,99.90
2023-04-14T11:20:22.546Z,99.90
2023-04-14T11:22:53.008Z,99.90
2023-04-14T11:25:24.445Z,99.90
2023-04-14T11:27:52.558Z,99.90
2023-04-14T11:30:21.163Z,99.90
2023-04-14T11:32:51.516Z,99.90
2023-04-14T11:35:19.865Z,99.90
2023-04-14T11:37:47.876Z,99.90
2023-04-14T11:40:16.427Z,99.90
2023-04-14T11:42:48.315Z,99.90
2023-04-14T11:45:16.390Z,99.90
2023-04-14T11:48:01.257Z,99.90
2023-04-14T11:50:32.627Z,99.90
2023-04-14T11:53:00.976Z,99.90
2023-04-14T11:55:29.524Z,99.90
2023-04-14T11:57:57.378Z,99.90
2023-04-14T12:00:25.115Z,99.90
2023-04-14T12:02:52.715Z,99.90
2023-04-14T12:05:23.004Z,99.90
2023-04-14T12:07:50.627Z,99.90
2023-04-14T12:10:18.616Z,99.90
2023-04-14T12:12:46.714Z,99.90
2023-04-14T12:15:14.002Z,99.90
2023-04-14T12:17:41.673Z,99.90
2023-04-14T12:20:16.228Z,99.90
2023-04-14T12:22:43.422Z,99.90
2023-04-14T12:25:12.920Z,99.90
2023-04-14T12:27:40.283Z,99.90
2023-04-14T12:30:09.922Z,99.90
2023-04-14T12:32:41.138Z,99.90
2023-04-14T12:35:09.315Z,99.90
2023-04-14T12:37:38.911Z,99.90
2023-04-14T12:40:07.288Z,99.90
2023-04-14T12:42:54.250Z,99.90
2023-04-14T12:45:21.491Z,99.90
2023-04-14T12:47:56.197Z,99.90
2023-04-14T12:50:28.358Z,99.90
2023-04-14T12:52:57.448Z,99.90
2023-04-14T12:55:25.912Z,99.90
2023-04-14T12:57:57.003Z,99.90
2023-04-14T13:00:28.915Z,99.90
2023-04-14T13:02:56.984Z,99.90
2023-04-14T13:05:24.646Z,99.90
2023-04-14T13:07:51.977Z,99.90
2023-04-14T13:10:19.316Z,99.90
2023-04-14T13:12:46.554Z,99.90
2023-04-14T13:16:00.270Z,99.90
2023-04-14T13:18:01.469Z,99.90
2023-04-14T13:20:30.693Z,99.90
2023-04-14T13:22:57.951Z,99.90
2023-04-14T13:25:25.194Z,99.90
2023-04-14T13:27:53.487Z,99.90
2023-04-14T13:30:21.048Z,99.90
2023-04-14T13:32:48.266Z,99.90
2023-04-14T13:35:16.050Z,99.90
2023-04-14T13:37:43.226Z,99.90
2023-04-14T13:40:10.829Z,99.90
2023-04-14T13:42:38.093Z,99.90
2023-04-14T13:45:06.540Z,99.90
2023-04-14T13:47:34.066Z,99.90
2023-04-14T13:50:01.859Z,99.90
2023-04-14T13:52:29.073Z,99.90
2023-04-14T13:54:56.845Z,99.90
2023-04-14T13:57:24.034Z,99.90
2023-04-14T13:59:51.346Z,99.90
2023-04-14T14:02:18.650Z,99.90
2023-04-14T14:04:45.904Z,99.90
2023-04-14T14:07:13.063Z,99.90
2023-04-14T14:09:40.260Z,99.90
2023-04-14T14:12:09.074Z,99.90
2023-04-14T14:14:36.181Z,99.90
2023-04-14T14:17:03.490Z,1.00
2023-04-14T14:19:30.750Z,99.90
2023-04-14T14:21:58.103Z,1.00
2023-04-14T14:24:25.315Z,1.00
2023-04-14T14:26:52.486Z,99.90
2023-04-14T14:29:19.826Z,99.90
2023-04-14T14:31:47.647Z,99.90
2023-04-14T14:34:15.141Z,1.00
2023-04-14T14:36:43.912Z,1.00
2023-04-14T14:39:11.378Z,1.00
2023-04-14T14:41:38.702Z,99.90
2023-04-14T14:44:06.257Z,1.00
2023-04-14T14:46:34.267Z,99.90
2023-04-14T14:49:01.503Z,1.00
2023-04-14T14:51:28.783Z,1.00
2023-04-14T14:54:08.786Z,1.00
2023-04-14T14:56:37.642Z,1.00
2023-04-14T14:59:04.950Z,1.00
2023-04-14T15:01:33.879Z,1.00
2023-04-14T15:04:01.279Z,99.90
2023-04-14T15:06:28.826Z,99.90
2023-04-14T15:08:56.200Z,99.90
2023-04-14T15:11:23.328Z,99.90
2023-04-14T15:13:51.361Z,99.90
2023-04-14T15:16:18.842Z,99.90
2023-04-14T15:18:46.296Z,99.90
2023-04-14T15:21:13.457Z,99.90
2023-04-14T15:23:43.823Z,99.90
2023-04-14T15:26:12.649Z,99.90
2023-04-14T15:28:40.617Z,99.90
2023-04-14T15:31:08.645Z,99.90
2023-04-14T15:33:36.695Z,99.90
2023-04-14T15:36:04.013Z,99.90
2023-04-14T15:38:32.363Z,99.90
2023-04-14T15:41:00.356Z,99.90
2023-04-14T15:43:28.235Z,99.90
2023-04-14T15:45:56.098Z,99.90
2023-04-14T15:48:23.276Z,99.90
2023-04-14T15:50:50.602Z,99.90
2023-04-14T15:53:17.698Z,99.90
2023-04-14T15:55:44.915Z,99.90
2023-04-14T15:58:12.162Z,99.90
2023-04-14T16:00:39.729Z,99.90
2023-04-14T16:03:07.149Z,99.90
2023-04-14T16:05:34.975Z,99.90
2023-04-14T16:08:02.690Z,99.90
2023-04-14T16:10:30.244Z,99.90
2023-04-14T16:12:57.485Z,1.00
2023-04-14T16:15:25.594Z,1.00
2023-04-14T16:17:53.218Z,1.00
2023-04-14T16:20:20.382Z,1.00
2023-04-14T16:22:49.837Z,1.00
2023-04-14T16:25:17.481Z,1.00
2023-04-14T16:27:45.042Z,1.00
2023-04-14T16:30:12.688Z,1.00
2023-04-14T16:32:40.522Z,1.00
2023-04-14T16:35:08.470Z,1.00
2023-04-14T16:37:36.079Z,1.00
2023-04-14T16:40:03.738Z,1.00
2023-04-14T16:42:30.823Z,1.00
2023-04-14T16:44:58.435Z,1.00
2023-04-14T16:47:26.117Z,1.00
2023-04-14T16:49:54.682Z,1.00
2023-04-14T16:52:23.409Z,1.00
2023-04-14T16:54:52.791Z,1.00
2023-04-14T16:57:21.887Z,1.00
2023-04-14T16:59:50.644Z,1.00
2023-04-14T17:02:18.187Z,1.00
2023-04-14T17:04:46.116Z,1.00
2023-04-14T17:07:13.440Z,1.00
2023-04-14T17:09:41.931Z,1.00
2023-04-14T17:12:10.085Z,1.00
2023-04-14T17:14:37.412Z,1.00
2023-04-14T17:17:04.740Z,1.00
2023-04-14T17:19:32.761Z,1.00
2023-04-14T17:22:01.567Z,1.00
2023-04-14T17:24:31.853Z,1.00
2023-04-14T17:27:01.009Z,1.00
2023-04-14T17:29:30.029Z,1.00
2023-04-14T17:31:58.160Z,1.00
2023-04-14T17:34:26.514Z,1.00
2023-04-14T17:36:54.631Z,1.00
2023-04-14T17:39:27.127Z,6.90
2023-04-14T17:41:56.965Z,8.00
2023-04-14T17:44:32.683Z,70.40
2023-04-14T17:47:02.492Z,29.40
2023-04-14T17:49:30.624Z,1.00
2023-04-14T17:52:00.630Z,1.00
2023-04-14T17:54:31.188Z,1.00
2023-04-14T17:56:59.082Z,1.00
2023-04-14T17:59:27.040Z,1.00
2023-04-14T18:01:54.917Z,1.00
2023-04-14T18:04:23.341Z,1.00
2023-04-14T18:06:52.724Z,1.00
2023-04-14T18:09:20.893Z,1.00
2023-04-14T18:11:48.589Z,1.00
2023-04-14T18:14:16.509Z,1.00
2023-04-14T18:16:44.408Z,3.00
2023-04-14T18:19:12.507Z,15.90
2023-04-14T18:21:40.646Z,25.20
2023-04-14T18:26:44.159Z,42.80
2023-04-14T18:29:12.938Z,55.50
2023-04-14T18:31:40.604Z,68.50
2023-04-14T18:34:10.824Z,80.50
2023-04-14T18:36:39.319Z,89.30
2023-04-14T18:39:07.863Z,95.80
2023-04-14T18:41:36.865Z,99.90
2023-04-14T18:44:07.257Z,99.90
2023-04-14T18:46:36.585Z,99.90
2023-04-14T18:49:07.513Z,99.90
2023-04-14T18:51:37.172Z,99.90
2023-04-14T18:54:12.198Z,99.90
2023-04-14T18:56:40.440Z,99.90
2023-04-14T18:59:09.766Z,99.90
2023-04-14T19:01:39.759Z,99.90
2023-04-14T19:04:09.080Z,99.90
2023-04-14T19:06:37.876Z,99.90
2023-04-14T19:09:06.165Z,99.90
2023-04-14T19:11:37.556Z,99.90
2023-04-14T19:14:06.398Z,99.90
2023-04-14T19:16:35.858Z,99.90
2023-04-14T19:19:04.119Z,99.90
2023-04-14T19:21:32.621Z,99.90
2023-04-14T19:24:00.631Z,99.90
2023-04-14T19:26:30.187Z,99.90
2023-04-14T19:28:59.343Z,99.90
2023-04-14T19:31:29.538Z,99.90
2023-04-14T19:33:58.793Z,99.90
2023-04-14T19:36:28.335Z,99.90
2023-04-14T19:38:56.740Z,99.90
2023-04-14T19:41:25.482Z,99.90
2023-04-14T19:43:52.998Z,99.90
2023-04-14T19:46:20.306Z,99.90
2023-04-14T19:48:49.184Z,99.90
2023-04-14T19:51:17.315Z,99.90
2023-04-14T19:53:48.008Z,99.90
2023-04-14T19:56:16.429Z,99.90
2023-04-14T19:58:45.063Z,99.90
2023-04-14T20:01:13.756Z,99.90
2023-04-14T20:04:07.633Z,99.90
2023-04-14T20:06:35.053Z,99.90
2023-04-14T20:09:04.537Z,99.90
2023-04-14T20:11:32.875Z,99.90
2023-04-14T20:14:01.016Z,99.90
2023-04-14T20:16:28.630Z,99.90
2023-04-14T20:18:57.455Z,99.90
2023-04-14T20:21:25.375Z,99.90
2023-04-14T20:23:52.960Z,99.90
2023-04-14T20:26:21.271Z,99.90
2023-04-14T20:28:49.473Z,99.90
2023-04-14T20:31:17.534Z,99.90
2023-04-14T20:33:46.314Z,99.90
2023-04-14T20:36:14.917Z,99.90
2023-04-14T20:38:43.062Z,99.90
2023-04-14T20:41:11.653Z,99.90
2023-04-14T20:43:40.122Z,99.90
2023-04-14T20:46:07.634Z,97.90
2023-04-14T20:48:35.431Z,99.90
2023-04-14T20:51:04.400Z,99.90
2023-04-14T20:53:31.833Z,99.90
2023-04-14T20:55:59.148Z,99.90
2023-04-14T20:58:27.023Z,99.90
2023-04-14T21:00:54.254Z,99.90
2023-04-14T21:03:22.048Z,99.90
2023-04-14T21:05:49.827Z,99.90
2023-04-14T21:08:18.839Z,99.90
2023-04-14T21:11:15.655Z,99.90
2023-04-14T21:15:28.296Z,99.90
2023-04-14T21:16:22.089Z,99.90
2023-04-14T21:18:49.658Z,99.90
2023-04-14T21:21:17.212Z,99.90
2023-04-14T21:23:44.432Z,98.90
2023-04-14T21:26:14.932Z,94.80
2023-04-14T21:28:42.444Z,88.70
2023-04-14T21:31:10.828Z,86.70
2023-04-14T21:33:39.728Z,90.00
2023-04-14T21:36:07.291Z,82.30
2023-04-14T21:38:34.618Z,70.40
2023-04-14T21:41:02.254Z,65.90
2023-04-14T21:43:29.383Z,68.90
2023-04-14T21:45:57.459Z,73.60
2023-04-14T21:48:24.812Z,62.70
2023-04-14T21:50:52.166Z,60.90
2023-04-14T21:53:19.516Z,69.70
2023-04-14T21:55:47.830Z,71.50
2023-04-14T21:58:35.158Z,75.70
2023-04-14T22:01:02.463Z,91.50
2023-04-14T22:03:29.783Z,93.30
2023-04-14T22:05:57.099Z,91.20
2023-04-14T22:08:24.290Z,91.40
2023-04-14T22:10:53.422Z,93.00
2023-04-14T22:13:21.106Z,96.80
2023-04-14T22:15:49.616Z,96.30
2023-04-14T22:18:17.612Z,98.40
2023-04-14T22:20:45.459Z,99.60
2023-04-14T22:23:13.567Z,99.90
2023-04-14T22:25:40.809Z,99.90
2023-04-14T22:28:07.953Z,99.90
2023-04-14T22:30:35.429Z,99.90
2023-04-14T22:33:02.953Z,99.90
2023-04-14T22:35:31.219Z,99.90
2023-04-14T22:37:58.415Z,99.90
2023-04-14T22:40:25.547Z,99.90
2023-04-14T22:42:52.733Z,99.90
2023-04-14T22:45:19.808Z,99.90
2023-04-14T22:47:47.632Z,99.90
2023-04-14T22:50:14.756Z,99.90
2023-04-14T22:52:41.912Z,99.90
2023-04-14T22:55:09.169Z,99.90
2023-04-14T22:57:36.328Z,99.90
2023-04-14T23:00:09.279Z,99.90
2023-04-14T23:02:36.965Z,99.90
2023-04-14T23:05:04.639Z,99.90
2023-04-14T23:07:32.219Z,99.90
2023-04-14T23:09:59.688Z,99.90
2023-04-14T23:12:26.901Z,99.90
2023-04-14T23:14:54.055Z,99.90
2023-04-14T23:17:21.439Z,99.90
2023-04-14T23:19:48.624Z,99.90
2023-04-14T23:22:16.827Z,99.90
2023-04-14T23:24:44.173Z,99.90
2023-04-14T23:27:11.581Z,99.90
2023-04-14T23:29:39.969Z,99.90
2023-04-14T23:32:11.039Z,99.90
2023-04-14T23:34:38.626Z,99.90
2023-04-14T23:37:07.052Z,99.90
2023-04-14T23:39:34.818Z,99.90
2023-04-14T23:42:02.568Z,99.90
2023-04-14T23:44:29.948Z,99.90
2023-04-14T23:46:57.653Z,99.90
2023-04-14T23:49:35.433Z,99.90
2023-04-14T23:52:05.242Z,99.90
2023-04-14T23:54:32.928Z,99.90
2023-04-14T23:57:00.133Z,99.90
2023-04-14T23:59:27.438Z,99.90
